sensor_id;sensor_type;location;lat;lon;timestamp;pressure;altitude;pressure_sealevel;temperature;humidity
20160;BME280;50187;50.492;12.134;2024-03-22T00:02:33;98181.19;;;20.88;38.09
20160;BME280;50187;50.492;12.134;2024-03-22T00:05:17;98177.25;;;20.83;38.11
20160;BME280;50187;50.492;12.134;2024-03-22T00:08:02;98179.78;;;20.84;38.13
20160;BME280;50187;50.492;12.134;2024-03-22T00:10:46;98176.06;;;20.85;38.01
20160;BME280;50187;50.492;12.134;2024-03-22T00:13:31;98179.78;;;20.84;38.08
20160;BME280;50187;50.492;12.134;2024-03-22T00:19:00;98168.97;;;20.84;38.32
20160;BME280;50187;50.492;12.134;2024-03-22T00:21:44;98166.28;;;20.84;37.96
20160;BME280;50187;50.492;12.134;2024-03-22T00:24:29;98161.03;;;20.83;38.15
20160;BME280;50187;50.492;12.134;2024-03-22T00:27:13;98173.66;;;20.82;38.04
20160;BME280;50187;50.492;12.134;2024-03-22T00:29:58;98150.31;;;20.81;37.95
20160;BME280;50187;50.492;12.134;2024-03-22T00:32:42;98152.34;;;20.79;38.06
20160;BME280;50187;50.492;12.134;2024-03-22T00:35:28;98152.34;;;20.79;38.21
20160;BME280;50187;50.492;12.134;2024-03-22T00:38:13;98165.03;;;20.79;38.01
20160;BME280;50187;50.492;12.134;2024-03-22T00:40:58;98161.44;;;20.78;38.14
20160;BME280;50187;50.492;12.134;2024-03-22T00:43:42;98147.09;;;20.78;37.77
20160;BME280;50187;50.492;12.134;2024-03-22T00:46:26;98155.06;;;20.79;37.97
20160;BME280;50187;50.492;12.134;2024-03-22T00:49:11;98146.22;;;20.77;37.75
20160;BME280;50187;50.492;12.134;2024-03-22T00:51:55;98145.22;;;20.78;38.04
20160;BME280;50187;50.492;12.134;2024-03-22T00:54:40;98150.25;;;20.73;37.89
20160;BME280;50187;50.492;12.134;2024-03-22T00:57:25;98133.88;;;20.74;37.98
20160;BME280;50187;50.492;12.134;2024-03-22T01:00:10;98132.34;;;20.72;38.04
20160;BME280;50187;50.492;12.134;2024-03-22T01:02:54;98131.63;;;20.70;37.80
20160;BME280;50187;50.492;12.134;2024-03-22T01:05:38;98132.50;;;20.70;38.06
20160;BME280;50187;50.492;12.134;2024-03-22T01:08:24;98131.47;;;20.71;37.70
20160;BME280;50187;50.492;12.134;2024-03-22T01:11:09;98123.34;;;20.71;37.79
20160;BME280;50187;50.492;12.134;2024-03-22T01:13:53;98110.44;;;20.65;37.66
20160;BME280;50187;50.492;12.134;2024-03-22T01:16:38;98123.34;;;20.71;37.72
20160;BME280;50187;50.492;12.134;2024-03-22T01:19:23;98118.09;;;20.70;37.77
20160;BME280;50187;50.492;12.134;2024-03-22T01:22:08;98115.56;;;20.68;37.76
20160;BME280;50187;50.492;12.134;2024-03-22T01:24:52;98096.50;;;20.60;37.34
20160;BME280;50187;50.492;12.134;2024-03-22T01:27:37;98104.19;;;20.65;37.61
20160;BME280;50187;50.492;12.134;2024-03-22T01:30:22;98097.06;;;20.64;37.68
20160;BME280;50187;50.492;12.134;2024-03-22T01:33:07;98095.19;;;20.64;37.63
20160;BME280;50187;50.492;12.134;2024-03-22T01:35:51;98099.09;;;20.62;37.73
20160;BME280;50187;50.492;12.134;2024-03-22T01:38:35;98095.34;;;20.63;37.59
20160;BME280;50187;50.492;12.134;2024-03-22T01:41:20;98110.59;;;20.64;37.69
20160;BME280;50187;50.492;12.134;2024-03-22T01:44:04;98094.53;;;20.62;37.41
20160;BME280;50187;50.492;12.134;2024-03-22T01:46:49;98096.38;;;20.62;37.37
20160;BME280;50187;50.492;12.134;2024-03-22T01:49:34;98096.50;;;20.60;37.63
20160;BME280;50187;50.492;12.134;2024-03-22T01:52:18;98086.00;;;20.57;37.32
20160;BME280;50187;50.492;12.134;2024-03-22T01:55:03;98084.03;;;20.59;37.72
20160;BME280;50187;50.492;12.134;2024-03-22T01:57:51;98079.75;;;20.56;37.38
20160;BME280;50187;50.492;12.134;2024-03-22T02:00:36;98069.78;;;20.57;37.38
20160;BME280;50187;50.492;12.134;2024-03-22T02:03:21;98082.47;;;20.56;37.42
20160;BME280;50187;50.492;12.134;2024-03-22T02:06:05;98073.38;;;20.57;37.29
20160;BME280;50187;50.492;12.134;2024-03-22T02:08:50;98063.56;;;20.56;37.24
20160;BME280;50187;50.492;12.134;2024-03-22T02:11:36;98062.56;;;20.57;37.28
20160;BME280;50187;50.492;12.134;2024-03-22T02:14:21;98060.53;;;20.59;37.29
20160;BME280;50187;50.492;12.134;2024-03-22T02:17:06;98054.44;;;20.57;37.32
20160;BME280;50187;50.492;12.134;2024-03-22T02:19:50;98040.22;;;20.55;37.38
20160;BME280;50187;50.492;12.134;2024-03-22T02:22:34;98040.53;;;20.52;37.57
20160;BME280;50187;50.492;12.134;2024-03-22T02:25:19;98038.50;;;20.54;37.41
20160;BME280;50187;50.492;12.134;2024-03-22T02:28:04;98034.97;;;20.54;37.52
20160;BME280;50187;50.492;12.134;2024-03-22T02:30:48;98032.09;;;20.55;37.48
20160;BME280;50187;50.492;12.134;2024-03-22T02:33:32;98035.81;;;20.54;37.23
20160;BME280;50187;50.492;12.134;2024-03-22T02:36:17;98029.72;;;20.52;37.31
20160;BME280;50187;50.492;12.134;2024-03-22T02:39:02;98033.81;;;20.56;37.51
20160;BME280;50187;50.492;12.134;2024-03-22T02:41:46;98023.31;;;20.53;37.32
20160;BME280;50187;50.492;12.134;2024-03-22T02:44:30;98026.03;;;20.53;37.16
20160;BME280;50187;50.492;12.134;2024-03-22T02:47:15;98026.03;;;20.53;37.43
20160;BME280;50187;50.492;12.134;2024-03-22T02:49:59;98026.31;;;20.50;37.51
20160;BME280;50187;50.492;12.134;2024-03-22T02:52:44;98016.53;;;20.49;37.23
20160;BME280;50187;50.492;12.134;2024-03-22T02:55:29;98007.53;;;20.49;37.57
20160;BME280;50187;50.492;12.134;2024-03-22T02:58:13;98006.72;;;20.48;37.33
20160;BME280;50187;50.492;12.134;2024-03-22T03:00:57;98011.97;;;20.50;37.21
20160;BME280;50187;50.492;12.134;2024-03-22T03:03:42;98004.00;;;20.48;37.40
20160;BME280;50187;50.492;12.134;2024-03-22T03:06:26;98006.16;;;20.45;37.30
20160;BME280;50187;50.492;12.134;2024-03-22T03:09:12;98003.31;;;20.46;37.46
20160;BME280;50187;50.492;12.134;2024-03-22T03:11:56;98011.56;;;20.45;37.14
20160;BME280;50187;50.492;12.134;2024-03-22T03:14:40;98013.56;;;20.42;37.21
20160;BME280;50187;50.492;12.134;2024-03-22T03:17:25;98008.16;;;20.42;37.46
20160;BME280;50187;50.492;12.134;2024-03-22T03:20:10;97999.06;;;20.44;37.22
20160;BME280;50187;50.492;12.134;2024-03-22T03:22:57;97991.13;;;20.42;37.53
20160;BME280;50187;50.492;12.134;2024-03-22T03:25:43;97990.09;;;20.43;37.12
20160;BME280;50187;50.492;12.134;2024-03-22T03:28:28;98001.94;;;20.42;37.17
20160;BME280;50187;50.492;12.134;2024-03-22T03:31:12;97996.13;;;20.37;37.42
20160;BME280;50187;50.492;12.134;2024-03-22T03:33:57;98009.00;;;20.43;37.29
20160;BME280;50187;50.492;12.134;2024-03-22T03:36:41;98012.75;;;20.42;37.43
20160;BME280;50187;50.492;12.134;2024-03-22T03:39:26;98006.47;;;20.41;37.40
20160;BME280;50187;50.492;12.134;2024-03-22T03:42:11;98007.63;;;20.39;37.13
20160;BME280;50187;50.492;12.134;2024-03-22T03:44:55;98004.91;;;20.39;37.40
20160;BME280;50187;50.492;12.134;2024-03-22T03:47:39;98007.78;;;20.37;37.19
20160;BME280;50187;50.492;12.134;2024-03-22T03:50:24;97992.19;;;20.31;37.30
20160;BME280;50187;50.492;12.134;2024-03-22T03:53:09;97995.97;;;20.38;37.36
20160;BME280;50187;50.492;12.134;2024-03-22T03:55:53;98002.22;;;20.39;37.21
20160;BME280;50187;50.492;12.134;2024-03-22T03:58:37;98002.22;;;20.39;37.31
20160;BME280;50187;50.492;12.134;2024-03-22T04:01:22;97985.16;;;20.38;37.16
20160;BME280;50187;50.492;12.134;2024-03-22T04:04:06;97981.78;;;20.36;37.30
20160;BME280;50187;50.492;12.134;2024-03-22T04:06:51;97976.38;;;20.36;37.10
20160;BME280;50187;50.492;12.134;2024-03-22T04:09:35;97981.06;;;20.34;37.35
20160;BME280;50187;50.492;12.134;2024-03-22T04:12:20;97982.06;;;20.33;37.36
20160;BME280;50187;50.492;12.134;2024-03-22T04:15:04;97984.63;;;20.35;37.23
20160;BME280;50187;50.492;12.134;2024-03-22T04:17:49;97983.78;;;20.34;37.05
20160;BME280;50187;50.492;12.134;2024-03-22T04:20:33;97980.91;;;20.36;37.26
20160;BME280;50187;50.492;12.134;2024-03-22T04:23:18;97983.78;;;20.34;37.10
20160;BME280;50187;50.492;12.134;2024-03-22T04:26:03;97979.22;;;20.35;37.21
20160;BME280;50187;50.492;12.134;2024-03-22T04:28:47;97985.63;;;20.34;37.24
20160;BME280;50187;50.492;12.134;2024-03-22T04:31:31;97975.81;;;20.33;37.28
20160;BME280;50187;50.492;12.134;2024-03-22T04:34:16;97957.97;;;20.22;37.28
20160;BME280;50187;50.492;12.134;2024-03-22T04:37:00;97972.72;;;20.28;37.04
20160;BME280;50187;50.492;12.134;2024-03-22T04:39:45;97966.31;;;20.29;37.26
20160;BME280;50187;50.492;12.134;2024-03-22T04:42:29;97971.72;;;20.29;36.98
20160;BME280;50187;50.492;12.134;2024-03-22T04:45:14;97968.34;;;20.27;37.11
20160;BME280;50187;50.492;12.134;2024-03-22T04:47:59;97965.31;;;20.30;37.22
20160;BME280;50187;50.492;12.134;2024-03-22T04:50:48;97961.78;;;20.29;37.16
20160;BME280;50187;50.492;12.134;2024-03-22T04:53:34;97954.53;;;20.30;37.12
20160;BME280;50187;50.492;12.134;2024-03-22T04:56:18;97949.59;;;20.25;37.14
20160;BME280;50187;50.492;12.134;2024-03-22T04:59:03;97952.72;;;20.20;37.30
20160;BME280;50187;50.492;12.134;2024-03-22T05:01:47;97944.34;;;20.23;36.96
20160;BME280;50187;50.492;12.134;2024-03-22T05:04:32;97949.13;;;20.30;37.10
20160;BME280;50187;50.492;12.134;2024-03-22T05:07:16;97953.88;;;20.36;36.76
20160;BME280;50187;50.492;12.134;2024-03-22T05:10:02;97939.22;;;20.38;36.78
20160;BME280;50187;50.492;12.134;2024-03-22T05:12:47;97941.09;;;20.38;36.90
20160;BME280;50187;50.492;12.134;2024-03-22T05:15:31;97936.75;;;20.45;36.83
20160;BME280;50187;50.492;12.134;2024-03-22T05:18:16;97937.28;;;20.49;36.77
20160;BME280;50187;50.492;12.134;2024-03-22T05:21:00;97937.00;;;20.52;36.57
20160;BME280;50187;50.492;12.134;2024-03-22T05:23:45;97930.72;;;20.51;36.72
20160;BME280;50187;50.492;12.134;2024-03-22T05:26:29;97929.41;;;20.55;36.69
20160;BME280;50187;50.492;12.134;2024-03-22T05:29:16;97927.25;;;20.59;36.81
20160;BME280;50187;50.492;12.134;2024-03-22T05:32:01;97920.69;;;20.62;36.53
20160;BME280;50187;50.492;12.134;2024-03-22T05:34:47;97920.38;;;20.65;36.67
20160;BME280;50187;50.492;12.134;2024-03-22T05:37:32;97913.94;;;20.66;36.37
20160;BME280;50187;50.492;12.134;2024-03-22T05:40:18;97910.13;;;20.68;36.41
20160;BME280;50187;50.492;12.134;2024-03-22T05:43:02;97899.69;;;20.73;36.54
20160;BME280;50187;50.492;12.134;2024-03-22T05:45:47;97904.94;;;20.75;36.29
20160;BME280;50187;50.492;12.134;2024-03-22T05:48:32;97913.72;;;20.77;36.36
20160;BME280;50187;50.492;12.134;2024-03-22T05:51:17;97907.47;;;20.76;36.20
20160;BME280;50187;50.492;12.134;2024-03-22T05:54:01;97909.19;;;20.78;36.29
20160;BME280;50187;50.492;12.134;2024-03-22T05:56:46;97907.31;;;20.78;36.57
20160;BME280;50187;50.492;12.134;2024-03-22T05:59:31;97906.00;;;20.82;36.03
20160;BME280;50187;50.492;12.134;2024-03-22T06:02:16;97895.19;;;20.82;36.06
20160;BME280;50187;50.492;12.134;2024-03-22T06:05:00;97893.34;;;20.83;36.24
20160;BME280;50187;50.492;12.134;2024-03-22T06:07:45;97886.91;;;20.84;36.22
20160;BME280;50187;50.492;12.134;2024-03-22T06:10:30;97893.19;;;20.84;36.02
20160;BME280;50187;50.492;12.134;2024-03-22T06:13:15;97890.16;;;20.87;36.00
20160;BME280;50187;50.492;12.134;2024-03-22T06:15:59;97882.88;;;20.88;36.20
20160;BME280;50187;50.492;12.134;2024-03-22T06:18:44;97875.75;;;20.87;36.28
20160;BME280;50187;50.492;12.134;2024-03-22T06:21:28;97882.03;;;20.87;36.20
20160;BME280;50187;50.492;12.134;2024-03-22T06:24:13;97890.00;;;20.89;35.95
20160;BME280;50187;50.492;12.134;2024-03-22T06:26:57;97889.66;;;20.92;36.14
20160;BME280;50187;50.492;12.134;2024-03-22T06:29:42;97879.84;;;20.91;36.17
20160;BME280;50187;50.492;12.134;2024-03-22T06:32:26;97883.94;;;20.95;36.04
20160;BME280;50187;50.492;12.134;2024-03-22T06:35:11;97872.44;;;20.93;36.07
20160;BME280;50187;50.492;12.134;2024-03-22T06:37:55;97867.19;;;20.91;35.93
20160;BME280;50187;50.492;12.134;2024-03-22T06:40:40;97866.88;;;20.95;35.82
20160;BME280;50187;50.492;12.134;2024-03-22T06:43:25;97865.00;;;20.95;36.08
20160;BME280;50187;50.492;12.134;2024-03-22T06:46:09;97858.59;;;20.96;36.00
20160;BME280;50187;50.492;12.134;2024-03-22T06:48:54;97860.28;;;20.97;35.75
20160;BME280;50187;50.492;12.134;2024-03-22T06:51:38;97860.28;;;20.97;36.05
20160;BME280;50187;50.492;12.134;2024-03-22T06:54:23;97854.03;;;20.97;36.05
20160;BME280;50187;50.492;12.134;2024-03-22T06:57:07;97847.44;;;20.99;35.75
20160;BME280;50187;50.492;12.134;2024-03-22T06:59:52;97851.03;;;21.00;35.81
20160;BME280;50187;50.492;12.134;2024-03-22T07:02:36;97847.44;;;20.99;35.98
20160;BME280;50187;50.492;12.134;2024-03-22T07:05:21;97858.25;;;20.99;35.74
20160;BME280;50187;50.492;12.134;2024-03-22T07:08:06;97847.28;;;21.01;35.88
20160;BME280;50187;50.492;12.134;2024-03-22T07:10:51;97850.00;;;21.01;35.84
20160;BME280;50187;50.492;12.134;2024-03-22T07:13:37;97849.38;;;21.07;35.86
20160;BME280;50187;50.492;12.134;2024-03-22T07:16:21;97851.75;;;21.10;35.64
20160;BME280;50187;50.492;12.134;2024-03-22T07:19:05;97855.97;;;21.13;35.89
20160;BME280;50187;50.492;12.134;2024-03-22T07:21:50;97848.03;;;21.11;35.68
20160;BME280;50187;50.492;12.134;2024-03-22T07:24:34;97859.19;;;21.16;35.71
20160;BME280;50187;50.492;12.134;2024-03-22T07:27:19;97865.66;;;21.23;35.81
20160;BME280;50187;50.492;12.134;2024-03-22T07:30:04;97861.59;;;21.27;35.69
20160;BME280;50187;50.492;12.134;2024-03-22T07:32:49;97865.19;;;21.28;35.56
20160;BME280;50187;50.492;12.134;2024-03-22T07:35:36;97862.63;;;21.26;35.97
20160;BME280;50187;50.492;12.134;2024-03-22T07:38:21;97863.97;;;21.22;35.65
20160;BME280;50187;50.492;12.134;2024-03-22T07:41:05;97867.69;;;21.21;35.90
20160;BME280;50187;50.492;12.134;2024-03-22T07:43:50;97868.69;;;21.20;35.93
20160;BME280;50187;50.492;12.134;2024-03-22T07:46:34;97856.84;;;21.21;35.94
20160;BME280;50187;50.492;12.134;2024-03-22T07:49:19;97854.00;;;21.23;35.76
20160;BME280;50187;50.492;12.134;2024-03-22T07:52:03;97861.94;;;21.24;35.73
20160;BME280;50187;50.492;12.134;2024-03-22T07:54:49;97849.78;;;21.28;35.72
20160;BME280;50187;50.492;12.134;2024-03-22T07:57:33;97846.06;;;21.30;35.92
20160;BME280;50187;50.492;12.134;2024-03-22T08:00:18;97838.63;;;21.32;35.91
20160;BME280;50187;50.492;12.134;2024-03-22T08:03:02;97843.53;;;21.28;35.74
20160;BME280;50187;50.492;12.134;2024-03-22T08:05:47;97829.31;;;21.26;35.70
20160;BME280;50187;50.492;12.134;2024-03-22T08:08:32;97831.50;;;21.22;35.77
20160;BME280;50187;50.492;12.134;2024-03-22T08:11:16;97826.25;;;21.21;35.81
20160;BME280;50187;50.492;12.134;2024-03-22T08:14:01;97826.56;;;21.18;35.81
20160;BME280;50187;50.492;12.134;2024-03-22T08:16:48;97826.72;;;21.16;36.07
20160;BME280;50187;50.492;12.134;2024-03-22T08:19:32;97829.94;;;21.12;36.17
20160;BME280;50187;50.492;12.134;2024-03-22T08:22:17;97825.34;;;21.12;36.08
20160;BME280;50187;50.492;12.134;2024-03-22T08:25:01;97825.34;;;21.12;36.23
20160;BME280;50187;50.492;12.134;2024-03-22T08:27:48;97819.28;;;21.10;35.93
20160;BME280;50187;50.492;12.134;2024-03-22T08:30:32;97818.28;;;21.11;36.23
20160;BME280;50187;50.492;12.134;2024-03-22T08:33:17;97816.75;;;21.08;36.08
20160;BME280;50187;50.492;12.134;2024-03-22T08:36:02;97819.44;;;21.08;36.09
20160;BME280;50187;50.492;12.134;2024-03-22T08:38:46;97813.50;;;21.05;35.98
20160;BME280;50187;50.492;12.134;2024-03-22T08:41:31;97803.84;;;21.02;36.09
20160;BME280;50187;50.492;12.134;2024-03-22T08:44:15;97811.66;;;21.05;36.12
20160;BME280;50187;50.492;12.134;2024-03-22T08:47:00;97808.09;;;21.05;36.03
20160;BME280;50187;50.492;12.134;2024-03-22T08:49:45;97810.13;;;21.03;36.18
20160;BME280;50187;50.492;12.134;2024-03-22T08:52:29;97802.69;;;21.05;36.21
20160;BME280;50187;50.492;12.134;2024-03-22T08:55:15;97802.00;;;21.03;36.38
20160;BME280;50187;50.492;12.134;2024-03-22T08:58:00;97802.84;;;21.03;36.10
20160;BME280;50187;50.492;12.134;2024-03-22T09:00:44;97797.97;;;21.07;36.27
20160;BME280;50187;50.492;12.134;2024-03-22T09:03:29;97799.97;;;21.05;36.17
20160;BME280;50187;50.492;12.134;2024-03-22T09:06:14;97797.81;;;21.08;35.95
20160;BME280;50187;50.492;12.134;2024-03-22T09:08:59;97802.34;;;21.08;35.97
20160;BME280;50187;50.492;12.134;2024-03-22T09:11:43;97781.03;;;21.05;36.17
20160;BME280;50187;50.492;12.134;2024-03-22T09:14:28;97793.56;;;21.06;35.97
20160;BME280;50187;50.492;12.134;2024-03-22T09:17:12;97786.78;;;21.02;36.17
20160;BME280;50187;50.492;12.134;2024-03-22T09:19:57;97790.31;;;21.02;36.07
20160;BME280;50187;50.492;12.134;2024-03-22T09:22:41;97780.38;;;21.03;36.24
20160;BME280;50187;50.492;12.134;2024-03-22T09:25:26;97771.22;;;21.04;36.07
20160;BME280;50187;50.492;12.134;2024-03-22T09:28:10;97771.22;;;21.04;36.21
20160;BME280;50187;50.492;12.134;2024-03-22T09:30:55;97773.09;;;21.03;36.30
20160;BME280;50187;50.492;12.134;2024-03-22T09:33:40;97771.22;;;21.04;36.22
20160;BME280;50187;50.492;12.134;2024-03-22T09:36:26;97772.59;;;21.00;36.32
20160;BME280;50187;50.492;12.134;2024-03-22T09:39:11;97778.00;;;21.00;36.31
20160;BME280;50187;50.492;12.134;2024-03-22T09:41:57;97764.47;;;21.00;36.22
20160;BME280;50187;50.492;12.134;2024-03-22T09:44:44;97765.97;;;21.02;36.06
20160;BME280;50187;50.492;12.134;2024-03-22T09:47:31;97758.19;;;20.99;36.30
20160;BME280;50187;50.492;12.134;2024-03-22T09:50:16;97749.09;;;21.00;36.01
20160;BME280;50187;50.492;12.134;2024-03-22T09:53:00;97757.19;;;21.00;36.06
20160;BME280;50187;50.492;12.134;2024-03-22T09:55:48;97751.63;;;21.02;36.12
20160;BME280;50187;50.492;12.134;2024-03-22T09:58:32;97740.78;;;20.93;36.13
20160;BME280;50187;50.492;12.134;2024-03-22T10:01:18;97740.44;;;20.97;36.10
20160;BME280;50187;50.492;12.134;2024-03-22T10:04:02;97745.53;;;21.00;36.21
20160;BME280;50187;50.492;12.134;2024-03-22T10:06:47;97739.28;;;20.99;36.29
20160;BME280;50187;50.492;12.134;2024-03-22T10:09:32;97739.59;;;20.96;36.29
20160;BME280;50187;50.492;12.134;2024-03-22T10:12:16;97732.31;;;20.97;36.10
20160;BME280;50187;50.492;12.134;2024-03-22T10:15:01;97731.50;;;20.96;36.26
20160;BME280;50187;50.492;12.134;2024-03-22T10:17:45;97724.22;;;20.97;36.14
20160;BME280;50187;50.492;12.134;2024-03-22T10:20:30;97716.44;;;20.93;36.36
20160;BME280;50187;50.492;12.134;2024-03-22T10:23:14;97722.84;;;20.92;36.38
20160;BME280;50187;50.492;12.134;2024-03-22T10:25:59;97721.84;;;20.93;36.36
20160;BME280;50187;50.492;12.134;2024-03-22T10:28:47;97716.28;;;20.95;36.26
20160;BME280;50187;50.492;12.134;2024-03-22T10:31:34;97710.88;;;20.95;36.17
20160;BME280;50187;50.492;12.134;2024-03-22T10:34:20;97700.22;;;20.93;36.18
20160;BME280;50187;50.492;12.134;2024-03-22T10:37:08;97710.38;;;20.91;36.16
20160;BME280;50187;50.492;12.134;2024-03-22T10:39:55;97700.53;;;20.90;36.32
20160;BME280;50187;50.492;12.134;2024-03-22T10:42:41;97704.25;;;20.89;36.37
20160;BME280;50187;50.492;12.134;2024-03-22T10:45:26;97703.91;;;20.92;36.21
20160;BME280;50187;50.492;12.134;2024-03-22T10:48:12;97696.50;;;20.95;36.04
20160;BME280;50187;50.492;12.134;2024-03-22T10:51:01;97698.38;;;20.94;36.30
20160;BME280;50187;50.492;12.134;2024-03-22T10:53:45;97690.41;;;20.92;36.16
20160;BME280;50187;50.492;12.134;2024-03-22T10:56:31;97691.25;;;20.93;36.40
20160;BME280;50187;50.492;12.134;2024-03-22T10:59:19;97688.41;;;20.95;36.31
20160;BME280;50187;50.492;12.134;2024-03-22T11:02:04;97679.59;;;20.92;36.35
20160;BME280;50187;50.492;12.134;2024-03-22T11:04:56;97676.41;;;20.97;36.34
20160;BME280;50187;50.492;12.134;2024-03-22T11:07:43;97677.56;;;20.95;36.22
20160;BME280;50187;50.492;12.134;2024-03-22T11:10:33;97660.81;;;20.91;36.21
20160;BME280;50187;50.492;12.134;2024-03-22T11:13:18;97666.41;;;20.89;36.46
20160;BME280;50187;50.492;12.134;2024-03-22T11:16:04;97655.94;;;20.95;36.28
20160;BME280;50187;50.492;12.134;2024-03-22T11:18:48;97657.66;;;20.96;36.33
20160;BME280;50187;50.492;12.134;2024-03-22T11:21:33;97648.66;;;20.95;36.43
20160;BME280;50187;50.492;12.134;2024-03-22T11:24:17;97646.13;;;20.93;36.54
20160;BME280;50187;50.492;12.134;2024-03-22T11:27:02;97636.31;;;20.92;36.25
20160;BME280;50187;50.492;12.134;2024-03-22T11:29:46;97633.47;;;20.94;36.17
20160;BME280;50187;50.492;12.134;2024-03-22T11:32:33;97632.28;;;20.97;36.25
20160;BME280;50187;50.492;12.134;2024-03-22T11:35:19;97623.50;;;20.95;36.36
20160;BME280;50187;50.492;12.134;2024-03-22T11:38:03;97625.19;;;20.96;36.37
20160;BME280;50187;50.492;12.134;2024-03-22T11:40:48;97620.47;;;20.98;36.32
20160;BME280;50187;50.492;12.134;2024-03-22T11:43:33;97615.22;;;20.96;36.39
20160;BME280;50187;50.492;12.134;2024-03-22T11:46:18;97606.56;;;20.92;36.46
20160;BME280;50187;50.492;12.134;2024-03-22T11:49:03;97606.25;;;21.04;36.17
20160;BME280;50187;50.492;12.134;2024-03-22T11:51:48;97601.19;;;21.09;36.06
20160;BME280;50187;50.492;12.134;2024-03-22T11:54:32;97603.38;;;21.14;36.14
20160;BME280;50187;50.492;12.134;2024-03-22T11:57:17;97600.69;;;21.14;35.88
20160;BME280;50187;50.492;12.134;2024-03-22T12:00:03;97592.56;;;21.14;35.95
20160;BME280;50187;50.492;12.134;2024-03-22T12:02:56;97589.19;;;21.12;35.99
20160;BME280;50187;50.492;12.134;2024-03-22T12:05:40;97577.56;;;21.11;36.13
20160;BME280;50187;50.492;12.134;2024-03-22T12:08:25;97578.56;;;21.10;36.27
20160;BME280;50187;50.492;12.134;2024-03-22T12:11:10;97576.03;;;21.08;36.30
20160;BME280;50187;50.492;12.134;2024-03-22T12:13:55;97571.28;;;21.10;36.25
20160;BME280;50187;50.492;12.134;2024-03-22T12:16:39;97559.44;;;21.12;36.22
20160;BME280;50187;50.492;12.134;2024-03-22T12:19:24;97551.50;;;21.10;36.26
20160;BME280;50187;50.492;12.134;2024-03-22T12:22:08;97549.63;;;21.10;36.19
20160;BME280;50187;50.492;12.134;2024-03-22T12:24:52;97540.16;;;21.15;36.29
20160;BME280;50187;50.492;12.134;2024-03-22T12:27:37;97545.09;;;21.11;36.20
20160;BME280;50187;50.492;12.134;2024-03-22T12:30:22;97528.88;;;21.11;36.14
20160;BME280;50187;50.492;12.134;2024-03-22T12:33:06;97543.56;;;21.17;36.05
20160;BME280;50187;50.492;12.134;2024-03-22T12:35:54;97537.47;;;21.15;36.21
20160;BME280;50187;50.492;12.134;2024-03-22T12:38:38;97524.81;;;21.07;36.22
20160;BME280;50187;50.492;12.134;2024-03-22T12:41:23;97533.41;;;21.10;36.10
20160;BME280;50187;50.492;12.134;2024-03-22T12:44:07;97521.06;;;21.08;36.07
20160;BME280;50187;50.492;12.134;2024-03-22T12:46:52;97515.34;;;21.03;36.40
20160;BME280;50187;50.492;12.134;2024-03-22T12:49:38;97506.88;;;20.98;36.25
20160;BME280;50187;50.492;12.134;2024-03-22T12:52:22;97496.22;;;20.96;36.55
20160;BME280;50187;50.492;12.134;2024-03-22T12:55:07;97503.34;;;20.97;36.32
20160;BME280;50187;50.492;12.134;2024-03-22T12:57:52;97505.53;;;20.93;36.46
20160;BME280;50187;50.492;12.134;2024-03-22T13:00:36;97506.22;;;20.96;36.51
20160;BME280;50187;50.492;12.134;2024-03-22T13:03:21;97500.81;;;20.96;36.33
20160;BME280;50187;50.492;12.134;2024-03-22T13:06:05;97505.53;;;20.93;36.60
20160;BME280;50187;50.492;12.134;2024-03-22T13:08:49;97492.53;;;20.89;36.33
20160;BME280;50187;50.492;12.134;2024-03-22T13:11:35;97494.06;;;20.91;nan
20160;BME280;50187;50.492;12.134;2024-03-22T13:14:20;97485.06;;;20.91;36.30
20160;BME280;50187;50.492;12.134;2024-03-22T13:17:04;97484.41;;;20.89;36.61
20160;BME280;50187;50.492;12.134;2024-03-22T13:19:49;97474.59;;;20.88;36.31
20160;BME280;50187;50.492;12.134;2024-03-22T13:22:33;97472.91;;;20.87;36.60
20160;BME280;50187;50.492;12.134;2024-03-22T13:25:17;97466.31;;;20.81;36.55
20160;BME280;50187;50.492;12.134;2024-03-22T13:28:03;97462.59;;;20.82;36.50
20160;BME280;50187;50.492;12.134;2024-03-22T13:30:49;97465.31;;;20.82;36.66
20160;BME280;50187;50.492;12.134;2024-03-22T13:33:34;97458.06;;;20.83;36.39
20160;BME280;50187;50.492;12.134;2024-03-22T13:36:19;97451.78;;;20.82;36.64
20160;BME280;50187;50.492;12.134;2024-03-22T13:39:04;97445.56;;;20.82;36.63
20160;BME280;50187;50.492;12.134;2024-03-22T13:41:48;97440.50;;;20.79;36.59
20160;BME280;50187;50.492;12.134;2024-03-22T13:44:33;97436.09;;;20.78;36.45
20160;BME280;50187;50.492;12.134;2024-03-22T13:47:18;97436.75;;;20.80;36.66
20160;BME280;50187;50.492;12.134;2024-03-22T13:50:07;97428.66;;;20.80;36.57
20160;BME280;50187;50.492;12.134;2024-03-22T13:52:54;97424.09;;;20.80;36.57
20160;BME280;50187;50.492;12.134;2024-03-22T13:55:38;97413.28;;;20.80;36.81
20160;BME280;50187;50.492;12.134;2024-03-22T13:58:23;97420.53;;;20.80;36.53
20160;BME280;50187;50.492;12.134;2024-03-22T14:01:07;97407.38;;;20.76;36.74
20160;BME280;50187;50.492;12.134;2024-03-22T14:03:52;97404.66;;;20.76;36.76
20160;BME280;50187;50.492;12.134;2024-03-22T14:06:37;97393.03;;;20.76;36.79
20160;BME280;50187;50.492;12.134;2024-03-22T14:09:22;97395.53;;;20.78;36.56
20160;BME280;50187;50.492;12.134;2024-03-22T14:12:06;97385.56;;;20.78;36.81
20160;BME280;50187;50.492;12.134;2024-03-22T14:14:51;97385.56;;;20.78;36.77
20160;BME280;50187;50.492;12.134;2024-03-22T14:17:35;97374.09;;;20.76;36.76
20160;BME280;50187;50.492;12.134;2024-03-22T14:20:20;97369.88;;;20.73;36.61
20160;BME280;50187;50.492;12.134;2024-03-22T14:23:04;97360.94;;;20.73;36.84
20160;BME280;50187;50.492;12.134;2024-03-22T14:25:51;97360.75;;;20.74;36.79